Latest Weather Observations for Portland Harbour

IDV60801

Issued at 3:33 pm EST Saturday 19 August 2017 (issued every 30 minutes, with the page automatically refreshed every 10 minutes)

About weather observations | Map of weather stations | Latest weather observations for VIC | Other Formats
Station Details ID: 090192 Name: PORTLAND NTC AWS Lat: -38.34 Lon: 141.61 Height: 0.0 m
Data from the previous 72 hours. | See also: Recent months for locations in Victoria
Date/Time
EST
Temp
°C
App
Temp
°C
Dew
Point
°C
Rel
Hum
%
Delta-T
°C
Wind Press
QNH
hPa
Press
MSL
hPa
Rain since
9am
mm
Dir  Spd
km/h
Gust
km/h
Spd
kts
Gust
kts
19/03:30pm 11.1 - - - - S 15 22 8 12 1028.0 1028.0 -
19/03:00pm 11.3 - - - - SSW 19 24 10 13 1028.0 1028.0 -
19/02:30pm 11.2 - - - - SSW 20 32 11 17 1028.0 1028.0 -
19/02:00pm 11.4 - - - - SSW 20 26 11 14 1027.9 1027.9 -
19/01:30pm 11.4 - - - - SSW 24 33 13 18 1028.2 1028.2 -
19/01:00pm 11.2 - - - - S 17 24 9 13 1028.2 1028.2 -
19/12:30pm 11.2 - - - - SSW 20 30 11 16 1028.2 1028.2 -
19/12:00pm 11.2 - - - - S 19 24 10 13 1028.4 1028.4 -
19/11:30am 11.5 - - - - S 19 26 10 14 1028.6 1028.6 -
19/11:00am 10.8 - - - - SSW 24 33 13 18 1028.6 1028.6 -
19/10:30am 10.9 - - - - S 22 32 12 17 1028.4 1028.4 -
19/10:00am 10.8 - - - - SSW 24 30 13 16 1028.3 1028.3 -
19/09:30am 10.0 - - - - SW 17 24 9 13 1028.1 1028.1 -
19/09:00am 10.8 - - - - SSW 19 24 10 13 1027.8 1027.8 -
19/08:30am 9.9 - - - - SSW 17 24 9 13 1027.3 1027.3 -
19/08:00am 9.9 - - - - SSW 17 24 9 13 1026.9 1026.9 -
19/07:30am 9.6 - - - - SSW 17 26 9 14 1026.5 1026.5 -
19/07:00am 8.7 - - - - SW 11 17 6 9 1026.0 1026.0 -
19/06:30am 9.3 - - - - S 19 26 10 14 1025.6 1025.6 -
19/06:00am 9.0 - - - - SSE 22 33 12 18 1025.3 1025.3 -
19/05:30am 9.4 - - - - S 20 28 11 15 1024.9 1024.9 -
19/05:00am 9.7 - - - - SSW 26 37 14 20 1024.6 1024.6 -
19/04:30am 8.8 - - - - SSW 24 37 13 20 1024.3 1024.3 -
19/04:00am 9.6 - - - - SSW 26 35 14 19 1024.1 1024.1 -
19/03:30am 9.6 - - - - SSW 22 33 12 18 1023.9 1023.9 -
19/03:00am 9.4 - - - - SSW 13 26 7 14 1023.7 1023.7 -
19/02:30am 9.6 - - - - SSW 17 24 9 13 1023.5 1023.5 -
19/02:00am 9.2 - - - - S 32 46 17 25 1023.7 1023.7 -
19/01:57am 9.6 - - - - SSW 28 46 15 25 1023.6 1023.6 -
19/01:30am 10.1 - - - - SSW 22 30 12 16 1023.3 1023.3 -
19/01:00am 10.2 - - - - SSW 26 33 14 18 1023.2 1023.2 -
19/12:30am 10.1 - - - - SSW 22 35 12 19 1023.0 1023.0 -
19/12:00am 10.3 - - - - SSW 24 35 13 19 1022.8 1022.8 -
 
Date/Time
EST
Temp
°C
App
Temp
°C
Dew
Point
°C
Rel
Hum
%
Delta-T
°C
Wind Press
QNH
hPa
Press
MSL
hPa
Rain since
9am
mm
Dir  Spd
km/h
Gust
km/h
Spd
kts
Gust
kts
18/11:30pm 10.1 - - - - SSW 20 32 11 17 1022.8 1022.8 -
18/11:00pm 10.3 - - - - SSW 24 39 13 21 1022.7 1022.7 -
18/10:30pm 10.0 - - - - SSW 26 44 14 24 1022.4 1022.4 -
18/10:00pm 10.4 - - - - SSW 22 32 12 17 1022.2 1022.2 -
18/09:30pm 9.6 - - - - SW 13 24 7 13 1022.0 1022.0 -
18/09:01pm 10.3 - - - - SSW 32 54 17 29 1021.8 1021.8 -
18/09:00pm 10.4 - - - - SSW 30 46 16 25 1021.7 1021.7 -
18/08:30pm 10.4 - - - - SW 19 30 10 16 1021.4 1021.4 -
18/08:00pm 10.4 - - - - SSW 22 30 12 16 1020.9 1020.9 -
18/07:30pm 9.9 - - - - SW 19 28 10 15 1020.5 1020.5 -
18/07:00pm 10.0 - - - - SW 24 37 13 20 1020.0 1020.0 -
18/06:30pm 10.1 - - - - SW 20 32 11 17 1019.5 1019.5 -
18/06:00pm 10.3 - - - - SW 19 28 10 15 1019.0 1019.0 -
18/05:30pm 10.6 - - - - SSW 30 44 16 24 1018.3 1018.3 -
18/05:00pm 9.7 - - - - WSW 19 28 10 15 1018.0 1018.0 -
18/04:30pm 10.0 - - - - SW 28 41 15 22 1017.4 1017.4 -
18/04:00pm 11.4 - - - - SW 32 43 17 23 1016.9 1016.9 -
18/03:30pm 11.6 - - - - SW 33 48 18 26 1016.5 1016.5 -
18/03:00pm 10.1 - - - - SSW 35 46 19 25 1016.1 1016.1 -
18/02:30pm 11.5 - - - - SW 32 52 17 28 1015.6 1015.6 -
18/02:00pm 11.5 - - - - SW 35 50 19 27 1015.1 1015.1 -
18/01:32pm 11.6 - - - - SW 33 52 18 28 1014.8 1014.8 -
18/01:30pm 11.5 - - - - SW 32 46 17 25 1014.7 1014.7 -
18/01:00pm 10.0 - - - - SW 28 48 15 26 1014.8 1014.8 -
18/12:34pm 11.3 - - - - SW 35 56 19 30 1014.3 1014.3 -
18/12:30pm 11.3 - - - - SW 35 50 19 27 1014.1 1014.1 -
18/12:07pm 10.0 - - - - WSW 35 56 19 30 1014.0 1014.0 -
18/12:00pm 10.5 - - - - WSW 43 56 23 30 1014.0 1014.0 -
18/11:32am 11.5 - - - - SW 37 61 20 33 1013.5 1013.5 -
18/11:30am 11.4 - - - - SW 35 50 19 27 1013.4 1013.4 -
18/11:00am 11.6 - - - - SW 32 52 17 28 1013.2 1013.2 -
18/10:49am 10.4 - - - - SW 28 46 15 25 1013.1 1013.1 -
18/10:30am 11.5 - - - - SW 39 57 21 31 1012.6 1012.6 -
18/10:14am 11.5 - - - - SW 48 69 26 37 1012.4 1012.4 -
18/10:00am 11.5 - - - - SW 43 61 23 33 1012.0 1012.0 -
18/09:31am 10.7 - - - - SW 41 67 22 36 1011.5 1011.5 -
18/09:30am 10.8 - - - - SW 41 57 22 31 1011.5 1011.5 -
18/09:01am 10.3 - - - - SW 32 54 17 29 1010.7 1010.7 -
18/09:00am 10.3 - - - - SW 30 44 16 24 1010.6 1010.6 -
18/08:42am 10.4 - - - - WSW 33 54 18 29 1010.3 1010.3 -
18/08:30am 10.7 - - - - WSW 37 50 20 27 1010.0 1010.0 -
18/08:21am 11.1 - - - - SW 35 54 19 29 1009.8 1009.8 -
18/08:00am 11.2 - - - - SW 37 54 20 29 1009.4 1009.4 -
18/07:32am 10.4 - - - - SW 43 63 23 34 1008.7 1008.7 -
18/07:30am 10.5 - - - - SW 43 59 23 32 1008.7 1008.7 -
18/07:00am 9.9 - - - - WSW 39 72 21 39 1007.7 1007.7 -
18/06:30am 10.0 - - - - WSW 35 57 19 31 1007.2 1007.2 -
18/06:00am 10.5 - - - - WSW 30 50 16 27 1007.0 1007.0 -
18/05:30am 10.7 - - - - WSW 37 57 20 31 1006.6 1006.6 -
18/05:00am 10.5 - - - - WSW 32 56 17 30 1006.1 1006.1 -
18/04:57am 11.0 - - - - WSW 28 56 15 30 1006.2 1006.2 -
18/04:30am 9.9 - - - - WSW 24 33 13 18 1005.8 1005.8 -
18/04:00am 10.2 - - - - SW 33 54 18 29 1005.6 1005.6 -
18/03:36am 9.9 - - - - SW 39 59 21 32 1005.3 1005.3 -
18/03:30am 9.8 - - - - SW 37 52 20 28 1005.1 1005.1 -
18/03:00am 9.3 - - - - SW 39 61 21 33 1004.8 1004.8 -
18/02:30am 9.4 - - - - WSW 41 61 22 33 1004.3 1004.3 -
18/02:22am 9.4 - - - - WSW 37 59 20 32 1004.3 1004.3 -
18/02:00am 10.2 - - - - WSW 33 50 18 27 1004.1 1004.1 -
18/01:46am 10.1 - - - - W 30 50 16 27 1003.8 1003.8 -
18/01:30am 9.9 - - - - WSW 33 46 18 25 1003.7 1003.7 -
18/01:00am 9.6 - - - - W 28 44 15 24 1003.2 1003.2 -
18/12:30am 9.3 - - - - WNW 28 39 15 21 1003.0 1003.0 -
18/12:00am 9.9 - - - - W 33 59 18 32 1002.9 1002.9 -
 
Date/Time
EST
Temp
°C
App
Temp
°C
Dew
Point
°C
Rel
Hum
%
Delta-T
°C
Wind Press
QNH
hPa
Press
MSL
hPa
Rain since
9am
mm
Dir  Spd
km/h
Gust
km/h
Spd
kts
Gust
kts
17/11:30pm 9.3 - - - - WSW 37 65 20 35 1002.8 1002.8 -
17/11:08pm 8.8 - - - - W 28 50 15 27 1002.7 1002.7 -
17/11:00pm 9.8 - - - - WNW 13 24 7 13 1002.6 1002.6 -
17/10:30pm 8.1 - - - - NNW 19 26 10 14 1002.7 1002.7 -
17/10:00pm 9.8 - - - - W 30 52 16 28 1002.4 1002.4 -
17/09:54pm 10.0 - - - - W 28 52 15 28 1002.8 1002.8 -
17/09:30pm 8.7 - - - - W 19 32 10 17 1002.6 1002.6 -
17/09:16pm 8.2 - - - - WNW 28 50 15 27 1002.7 1002.7 -
17/09:00pm 9.4 - - - - NW 19 26 10 14 1002.3 1002.3 -
17/08:30pm 8.7 - - - - NW 17 26 9 14 1002.4 1002.4 -
17/08:00pm 10.1 - - - - WNW 15 26 8 14 1002.1 1002.1 -
17/07:30pm 10.3 - - - - WNW 22 37 12 20 1002.0 1002.0 -
17/07:00pm 9.3 - - - - NW 17 30 9 16 1002.1 1002.1 -
17/06:30pm 9.4 - - - - WNW 13 24 7 13 1001.6 1001.6 -
17/06:00pm 9.6 - - - - NW 24 39 13 21 1000.9 1000.9 -
17/05:39pm 10.6 - - - - WNW 28 63 15 34 1001.2 1001.2 -
17/05:30pm 11.6 - - - - WNW 24 41 13 22 1000.3 1000.3 -
17/05:00pm 11.8 - - - - WNW 30 44 16 24 1000.1 1000.1 -
17/04:38pm 12.0 - - - - W 30 48 16 26 1000.0 1000.0 -
17/04:30pm 12.0 - - - - W 30 46 16 25 999.9 999.9 -
17/04:00pm 12.6 - - - - W 33 59 18 32 999.8 999.8 -
17/03:30pm 12.0 - - - - WNW 37 57 20 31 999.5 999.5 -
17/03:00pm 12.5 - - - - W 37 57 20 31 999.6 999.6 -
17/02:37pm 12.5 - - - - W 33 57 18 31 999.4 999.4 -
17/02:30pm 12.6 - - - - W 35 50 19 27 999.4 999.4 -
17/02:00pm 12.4 - - - - W 32 52 17 28 999.3 999.3 -
17/01:30pm 13.0 - - - - W 37 56 20 30 999.0 999.0 -
17/01:11pm 12.9 - - - - WSW 35 56 19 30 999.3 999.3 -
17/01:00pm 12.6 - - - - W 26 44 14 24 999.4 999.4 -
17/12:47pm 12.6 - - - - WNW 32 50 17 27 999.4 999.4 -
17/12:30pm 12.0 - - - - WNW 32 46 17 25 999.5 999.5 -
17/12:00pm 10.9 - - - - WNW 33 61 18 33 1000.1 1000.1 -
17/11:50am 11.0 - - - - NW 33 57 18 31 1000.2 1000.2 -
17/11:30am 11.6 - - - - NW 32 48 17 26 999.9 999.9 -
17/11:00am 11.3 - - - - WNW 33 54 18 29 1000.3 1000.3 -
17/10:34am 11.5 - - - - WNW 28 46 15 25 1000.0 1000.0 -
17/10:30am 11.5 - - - - NW 32 46 17 25 1000.0 1000.0 -
17/10:00am 11.4 - - - - NW 32 44 17 24 1000.0 1000.0 -
17/09:30am 11.0 - - - - NW 28 43 15 23 1000.1 1000.1 -
17/09:00am 10.4 - - - - NW 20 32 11 17 1000.1 1000.1 -
17/08:30am 9.5 - - - - NW 22 30 12 16 1000.0 1000.0 -
17/08:00am 9.2 - - - - NNW 22 30 12 16 999.8 999.8 -
17/07:30am 9.3 - - - - NNW 22 32 12 17 999.6 999.6 -
17/07:00am 9.3 - - - - NNW 20 28 11 15 999.4 999.4 -
17/06:30am 9.4 - - - - NNW 19 28 10 15 999.6 999.6 -
17/06:00am 8.8 - - - - WNW 15 20 8 11 999.5 999.5 -
17/05:30am 9.2 - - - - NW 30 43 16 23 999.6 999.6 -
17/05:07am 9.8 - - - - NNW 28 50 15 27 999.2 999.2 -
17/05:00am 10.2 - - - - NNW 22 28 12 15 999.3 999.3 -
17/04:30am 10.3 - - - - NNW 19 28 10 15 998.9 998.9 -
17/04:00am 10.6 - - - - NW 26 41 14 22 998.9 998.9 -
17/03:30am 10.7 - - - - WNW 11 19 6 10 999.6 999.6 -
17/03:00am 10.9 - - - - NW 19 32 10 17 999.6 999.6 -
17/02:30am 12.3 - - - - W 24 33 13 18 999.6 999.6 -
17/02:00am 12.4 - - - - WNW 26 39 14 21 999.7 999.7 -
17/01:30am 12.4 - - - - WNW 28 39 15 21 999.8 999.8 -
17/01:00am 12.5 - - - - WNW 28 44 15 24 1000.1 1000.1 -
17/12:30am 12.5 - - - - W 33 54 18 29 1000.0 1000.0 -
17/12:00am 12.4 - - - - WNW 32 57 17 31 1000.0 1000.0 -
 
Date/Time
EST
Temp
°C
App
Temp
°C
Dew
Point
°C
Rel
Hum
%
Delta-T
°C
Wind Press
QNH
hPa
Press
MSL
hPa
Rain since
9am
mm
Dir  Spd
km/h
Gust
km/h
Spd
kts
Gust
kts
16/11:51pm 12.4 - - - - WNW 28 57 15 31 999.8 999.8 -
16/11:30pm 11.3 - - - - NW 22 30 12 16 999.9 999.9 -
16/11:00pm 11.2 - - - - NW 22 33 12 18 999.7 999.7 -
16/10:30pm 11.2 - - - - NW 24 37 13 20 999.8 999.8 -
16/10:00pm 10.5 - - - - WNW 26 35 14 19 999.9 999.9 -
16/09:30pm 9.9 - - - - W 30 43 16 23 1000.3 1000.3 -
16/09:13pm 10.9 - - - - WNW 37 63 20 34 1000.7 1000.7 -
16/09:02pm 10.9 - - - - NW 35 63 19 34 999.3 999.3 -
16/09:00pm 11.4 - - - - NW 35 50 19 27 999.5 999.5 -
16/08:33pm 11.3 - - - - NW 30 50 16 27 999.1 999.1 -
16/08:30pm 11.3 - - - - NW 33 50 18 27 999.1 999.1 -
16/08:00pm 11.8 - - - - NNW 28 35 15 19 999.0 999.0 -
16/07:30pm 11.7 - - - - NW 24 39 13 21 999.2 999.2 -
16/07:00pm 13.4 - - - - WNW 24 41 13 22 999.2 999.2 -
16/06:30pm 13.5 - - - - W 35 57 19 31 999.1 999.1 -
16/06:00pm 13.4 - - - - W 39 61 21 33 998.9 998.9 -
16/05:32pm 13.4 - - - - WNW 35 54 19 29 998.6 998.6 -
16/05:30pm 13.3 - - - - WNW 35 50 19 27 998.6 998.6 -
16/05:04pm 13.3 - - - - WNW 32 54 17 29 998.5 998.5 -
16/05:00pm 13.2 - - - - WNW 33 52 18 28 998.4 998.4 -
16/04:30pm 13.4 - - - - WNW 43 67 23 36 998.3 998.3 -
16/04:00pm 13.6 - - - - W 39 59 21 32 998.2 998.2 -

Other Formats:

Comma delimited format used in spreadsheet applications
http://www.bom.gov.au/fwo/IDV60801/IDV60801.95826.axf

JavaScript Object Notation format (JSON) in row-major order
http://www.bom.gov.au/fwo/IDV60801/IDV60801.95826.json